Terminal Aerodrome Forecast
Issued by NWS Louisville, KY

Home | Current Version | Previous Version | Text Only | Print | Product List | Glossary On
Versions: 1 2 3 4 5 6 7 8 9 10 11 12 13 14 15 16
331
FTUS43 KLMK 261723
TAFLEX
TAF
KLEX 261723Z 2618/2718 30010G17KT 5SM -RA BR SCT020 BKN045
      TEMPO 2618/2620 2SM RA BR BKN020
     FM262000 29010KT P6SM BKN050
     FM262300 30006KT P6SM SKC
     FM271500 25007KT P6SM SKC=

USA.gov is the U.S. government's official web portal to all federal, state and local government web resources and services.